sensor_id;sensor_type;location;lat;lon;timestamp;P1;durP1;ratioP1;P2;durP2;ratioP2
12768;SDS011;6448;48.916;8.990;2024-01-15T00:00:38;13.02;;;11.73;;
12768;SDS011;6448;48.916;8.990;2024-01-15T00:01:43;12.75;;;11.50;;
12768;SDS011;6448;48.916;8.990;2024-01-15T00:02:44;13.25;;;11.93;;
12768;SDS011;6448;48.916;8.990;2024-01-15T00:03:46;13.02;;;11.73;;
12768;SDS011;6448;48.916;8.990;2024-01-15T00:04:46;12.80;;;11.50;;
12768;SDS011;6448;48.916;8.990;2024-01-15T00:05:48;12.85;;;11.55;;
12768;SDS011;6448;48.916;8.990;2024-01-15T00:06:49;12.88;;;11.55;;
12768;SDS011;6448;48.916;8.990;2024-01-15T00:07:51;12.70;;;11.50;;
12768;SDS011;6448;48.916;8.990;2024-01-15T00:08:52;12.77;;;11.47;;
12768;SDS011;6448;48.916;8.990;2024-01-15T00:09:52;12.48;;;11.27;;
12768;SDS011;6448;48.916;8.990;2024-01-15T00:10:54;13.35;;;11.98;;
12768;SDS011;6448;48.916;8.990;2024-01-15T00:11:55;13.13;;;11.82;;
12768;SDS011;6448;48.916;8.990;2024-01-15T00:12:57;12.50;;;11.30;;
12768;SDS011;6448;48.916;8.990;2024-01-15T00:13:58;13.23;;;11.82;;
12768;SDS011;6448;48.916;8.990;2024-01-15T00:14:59;13.10;;;11.77;;
12768;SDS011;6448;48.916;8.990;2024-01-15T00:16:00;13.48;;;12.10;;
12768;SDS011;6448;48.916;8.990;2024-01-15T00:17:03;13.45;;;12.10;;
12768;SDS011;6448;48.916;8.990;2024-01-15T00:18:04;12.88;;;11.57;;
12768;SDS011;6448;48.916;8.990;2024-01-15T00:19:06;12.95;;;11.65;;
12768;SDS011;6448;48.916;8.990;2024-01-15T00:20:07;13.52;;;12.23;;
12768;SDS011;6448;48.916;8.990;2024-01-15T00:21:09;12.93;;;11.63;;
12768;SDS011;6448;48.916;8.990;2024-01-15T00:22:10;13.50;;;12.10;;
12768;SDS011;6448;48.916;8.990;2024-01-15T00:23:11;13.80;;;12.40;;
12768;SDS011;6448;48.916;8.990;2024-01-15T00:24:13;14.07;;;12.68;;
12768;SDS011;6448;48.916;8.990;2024-01-15T00:25:14;13.20;;;11.90;;
12768;SDS011;6448;48.916;8.990;2024-01-15T00:26:15;13.13;;;11.83;;
12768;SDS011;6448;48.916;8.990;2024-01-15T00:27:16;13.30;;;12.00;;
12768;SDS011;6448;48.916;8.990;2024-01-15T00:28:17;13.03;;;11.70;;
12768;SDS011;6448;48.916;8.990;2024-01-15T00:29:19;13.07;;;11.77;;
12768;SDS011;6448;48.916;8.990;2024-01-15T00:30:19;13.20;;;11.87;;
12768;SDS011;6448;48.916;8.990;2024-01-15T00:31:21;13.07;;;11.77;;
12768;SDS011;6448;48.916;8.990;2024-01-15T00:32:23;12.65;;;11.35;;
12768;SDS011;6448;48.916;8.990;2024-01-15T00:33:25;13.63;;;12.25;;
12768;SDS011;6448;48.916;8.990;2024-01-15T00:34:26;13.95;;;12.55;;
12768;SDS011;6448;48.916;8.990;2024-01-15T00:35:27;13.38;;;12.07;;
12768;SDS011;6448;48.916;8.990;2024-01-15T00:36:28;13.13;;;11.82;;
12768;SDS011;6448;48.916;8.990;2024-01-15T00:37:30;13.50;;;12.10;;
12768;SDS011;6448;48.916;8.990;2024-01-15T00:38:31;12.75;;;11.48;;
12768;SDS011;6448;48.916;8.990;2024-01-15T00:39:31;13.80;;;12.40;;
12768;SDS011;6448;48.916;8.990;2024-01-15T00:40:33;13.00;;;11.70;;
12768;SDS011;6448;48.916;8.990;2024-01-15T00:41:34;13.20;;;11.88;;
12768;SDS011;6448;48.916;8.990;2024-01-15T00:42:36;13.52;;;12.23;;
12768;SDS011;6448;48.916;8.990;2024-01-15T00:43:36;13.10;;;11.80;;
12768;SDS011;6448;48.916;8.990;2024-01-15T00:44:38;13.30;;;12.00;;
12768;SDS011;6448;48.916;8.990;2024-01-15T00:45:39;13.23;;;11.93;;
12768;SDS011;6448;48.916;8.990;2024-01-15T00:46:42;13.25;;;11.95;;
12768;SDS011;6448;48.916;8.990;2024-01-15T00:47:45;13.05;;;11.75;;
12768;SDS011;6448;48.916;8.990;2024-01-15T00:48:47;13.55;;;12.15;;
12768;SDS011;6448;48.916;8.990;2024-01-15T00:49:48;13.38;;;12.07;;
12768;SDS011;6448;48.916;8.990;2024-01-15T00:50:49;13.30;;;12.00;;
12768;SDS011;6448;48.916;8.990;2024-01-15T00:51:51;13.35;;;12.05;;
12768;SDS011;6448;48.916;8.990;2024-01-15T00:52:52;13.37;;;11.97;;
12768;SDS011;6448;48.916;8.990;2024-01-15T00:53:54;13.70;;;12.37;;
12768;SDS011;6448;48.916;8.990;2024-01-15T00:54:54;13.33;;;12.03;;
12768;SDS011;6448;48.916;8.990;2024-01-15T00:55:56;13.57;;;12.17;;
12768;SDS011;6448;48.916;8.990;2024-01-15T00:56:57;13.07;;;11.77;;
12768;SDS011;6448;48.916;8.990;2024-01-15T00:57:59;13.45;;;12.15;;
12768;SDS011;6448;48.916;8.990;2024-01-15T00:59:00;13.38;;;12.07;;
12768;SDS011;6448;48.916;8.990;2024-01-15T01:00:02;13.38;;;12.02;;
12768;SDS011;6448;48.916;8.990;2024-01-15T01:01:03;13.93;;;12.52;;
12768;SDS011;6448;48.916;8.990;2024-01-15T01:02:05;13.18;;;11.88;;
12768;SDS011;6448;48.916;8.990;2024-01-15T01:03:07;13.65;;;12.25;;
12768;SDS011;6448;48.916;8.990;2024-01-15T01:04:09;13.48;;;12.18;;
12768;SDS011;6448;48.916;8.990;2024-01-15T01:05:09;13.00;;;11.67;;
12768;SDS011;6448;48.916;8.990;2024-01-15T01:06:11;13.20;;;11.90;;
12768;SDS011;6448;48.916;8.990;2024-01-15T01:07:12;13.38;;;12.07;;
12768;SDS011;6448;48.916;8.990;2024-01-15T01:08:14;13.10;;;11.80;;
12768;SDS011;6448;48.916;8.990;2024-01-15T01:09:15;13.13;;;11.82;;
12768;SDS011;6448;48.916;8.990;2024-01-15T01:10:16;13.75;;;12.30;;
12768;SDS011;6448;48.916;8.990;2024-01-15T01:11:17;14.05;;;12.65;;
12768;SDS011;6448;48.916;8.990;2024-01-15T01:12:19;13.30;;;11.95;;
12768;SDS011;6448;48.916;8.990;2024-01-15T01:13:19;13.43;;;12.02;;
12768;SDS011;6448;48.916;8.990;2024-01-15T01:14:20;12.95;;;11.65;;
12768;SDS011;6448;48.916;8.990;2024-01-15T01:15:22;12.75;;;11.45;;
12768;SDS011;6448;48.916;8.990;2024-01-15T01:16:24;13.60;;;12.30;;
12768;SDS011;6448;48.916;8.990;2024-01-15T01:17:25;13.10;;;11.80;;
12768;SDS011;6448;48.916;8.990;2024-01-15T01:18:28;12.80;;;11.60;;
12768;SDS011;6448;48.916;8.990;2024-01-15T01:19:29;12.90;;;11.60;;
12768;SDS011;6448;48.916;8.990;2024-01-15T01:20:31;13.03;;;11.73;;
12768;SDS011;6448;48.916;8.990;2024-01-15T01:21:32;13.20;;;11.90;;
12768;SDS011;6448;48.916;8.990;2024-01-15T01:22:34;12.90;;;11.60;;
12768;SDS011;6448;48.916;8.990;2024-01-15T01:23:35;12.70;;;11.50;;
12768;SDS011;6448;48.916;8.990;2024-01-15T01:24:36;12.63;;;11.43;;
12768;SDS011;6448;48.916;8.990;2024-01-15T01:25:37;12.57;;;11.27;;
12768;SDS011;6448;48.916;8.990;2024-01-15T01:26:39;12.35;;;11.15;;
12768;SDS011;6448;48.916;8.990;2024-01-15T01:27:40;12.07;;;10.88;;
12768;SDS011;6448;48.916;8.990;2024-01-15T01:28:40;11.90;;;10.80;;
12768;SDS011;6448;48.916;8.990;2024-01-15T01:29:42;12.77;;;11.57;;
12768;SDS011;6448;48.916;8.990;2024-01-15T01:30:43;13.00;;;11.70;;
12768;SDS011;6448;48.916;8.990;2024-01-15T01:31:45;12.00;;;10.80;;
12768;SDS011;6448;48.916;8.990;2024-01-15T01:32:46;11.98;;;10.80;;
12768;SDS011;6448;48.916;8.990;2024-01-15T01:33:49;12.30;;;11.10;;
12768;SDS011;6448;48.916;8.990;2024-01-15T01:34:49;12.23;;;11.02;;
12768;SDS011;6448;48.916;8.990;2024-01-15T01:35:51;11.60;;;10.43;;
12768;SDS011;6448;48.916;8.990;2024-01-15T01:36:53;12.15;;;10.95;;
12768;SDS011;6448;48.916;8.990;2024-01-15T01:37:54;12.30;;;11.10;;
12768;SDS011;6448;48.916;8.990;2024-01-15T01:38:55;12.35;;;11.15;;
12768;SDS011;6448;48.916;8.990;2024-01-15T01:39:57;11.57;;;10.40;;
12768;SDS011;6448;48.916;8.990;2024-01-15T01:40:58;12.10;;;10.90;;
12768;SDS011;6448;48.916;8.990;2024-01-15T01:41:59;11.93;;;10.73;;
12768;SDS011;6448;48.916;8.990;2024-01-15T01:43:00;11.60;;;10.50;;
12768;SDS011;6448;48.916;8.990;2024-01-15T01:44:04;11.10;;;10.00;;
12768;SDS011;6448;48.916;8.990;2024-01-15T01:45:05;11.45;;;10.35;;
12768;SDS011;6448;48.916;8.990;2024-01-15T01:46:07;11.77;;;10.57;;
12768;SDS011;6448;48.916;8.990;2024-01-15T01:47:08;11.18;;;10.07;;
12768;SDS011;6448;48.916;8.990;2024-01-15T01:48:10;11.20;;;10.10;;
12768;SDS011;6448;48.916;8.990;2024-01-15T01:49:12;11.32;;;10.23;;
12768;SDS011;6448;48.916;8.990;2024-01-15T01:50:15;11.87;;;10.67;;
12768;SDS011;6448;48.916;8.990;2024-01-15T01:51:16;11.15;;;10.05;;
12768;SDS011;6448;48.916;8.990;2024-01-15T01:52:18;11.85;;;10.65;;
12768;SDS011;6448;48.916;8.990;2024-01-15T01:53:19;11.73;;;10.63;;
12768;SDS011;6448;48.916;8.990;2024-01-15T01:54:20;11.30;;;10.20;;
12768;SDS011;6448;48.916;8.990;2024-01-15T01:55:22;11.40;;;10.30;;
12768;SDS011;6448;48.916;8.990;2024-01-15T01:56:26;12.00;;;10.80;;
12768;SDS011;6448;48.916;8.990;2024-01-15T01:57:28;11.82;;;10.63;;
12768;SDS011;6448;48.916;8.990;2024-01-15T01:58:30;11.77;;;10.57;;
12768;SDS011;6448;48.916;8.990;2024-01-15T01:59:33;11.88;;;10.68;;
12768;SDS011;6448;48.916;8.990;2024-01-15T02:00:35;11.82;;;10.63;;
12768;SDS011;6448;48.916;8.990;2024-01-15T02:01:37;11.73;;;10.50;;
12768;SDS011;6448;48.916;8.990;2024-01-15T02:02:39;11.50;;;10.30;;
12768;SDS011;6448;48.916;8.990;2024-01-15T02:03:41;11.13;;;10.02;;
12768;SDS011;6448;48.916;8.990;2024-01-15T02:04:43;11.35;;;10.15;;
12768;SDS011;6448;48.916;8.990;2024-01-15T02:05:45;11.13;;;10.02;;
12768;SDS011;6448;48.916;8.990;2024-01-15T02:06:49;10.88;;;9.77;;
12768;SDS011;6448;48.916;8.990;2024-01-15T02:07:51;10.85;;;9.75;;
12768;SDS011;6448;48.916;8.990;2024-01-15T02:08:52;9.85;;;8.95;;
12768;SDS011;6448;48.916;8.990;2024-01-15T02:09:54;10.27;;;9.27;;
12768;SDS011;6448;48.916;8.990;2024-01-15T02:10:55;10.52;;;9.52;;
12768;SDS011;6448;48.916;8.990;2024-01-15T02:11:56;10.40;;;9.40;;
12768;SDS011;6448;48.916;8.990;2024-01-15T02:12:57;10.30;;;9.20;;
12768;SDS011;6448;48.916;8.990;2024-01-15T02:13:59;10.60;;;9.60;;
12768;SDS011;6448;48.916;8.990;2024-01-15T02:15:00;11.00;;;9.90;;
12768;SDS011;6448;48.916;8.990;2024-01-15T02:16:02;9.98;;;8.98;;
12768;SDS011;6448;48.916;8.990;2024-01-15T02:17:03;10.30;;;9.30;;
12768;SDS011;6448;48.916;8.990;2024-01-15T02:18:04;9.80;;;8.90;;
12768;SDS011;6448;48.916;8.990;2024-01-15T02:19:07;10.25;;;9.15;;
12768;SDS011;6448;48.916;8.990;2024-01-15T02:20:16;9.98;;;8.98;;
12768;SDS011;6448;48.916;8.990;2024-01-15T02:21:18;10.18;;;9.18;;
12768;SDS011;6448;48.916;8.990;2024-01-15T02:22:19;9.77;;;8.68;;
12768;SDS011;6448;48.916;8.990;2024-01-15T02:23:22;9.93;;;9.00;;
12768;SDS011;6448;48.916;8.990;2024-01-15T02:24:23;9.80;;;8.80;;
12768;SDS011;6448;48.916;8.990;2024-01-15T02:25:24;10.20;;;9.20;;
12768;SDS011;6448;48.916;8.990;2024-01-15T02:26:25;10.15;;;9.20;;
12768;SDS011;6448;48.916;8.990;2024-01-15T02:27:27;10.02;;;9.02;;
12768;SDS011;6448;48.916;8.990;2024-01-15T02:28:28;10.20;;;9.20;;
12768;SDS011;6448;48.916;8.990;2024-01-15T02:29:30;9.90;;;8.90;;
12768;SDS011;6448;48.916;8.990;2024-01-15T02:30:31;9.85;;;8.85;;
12768;SDS011;6448;48.916;8.990;2024-01-15T02:31:34;10.18;;;9.18;;
12768;SDS011;6448;48.916;8.990;2024-01-15T02:32:36;9.70;;;8.70;;
12768;SDS011;6448;48.916;8.990;2024-01-15T02:33:37;10.13;;;9.13;;
12768;SDS011;6448;48.916;8.990;2024-01-15T02:34:38;9.43;;;8.53;;
12768;SDS011;6448;48.916;8.990;2024-01-15T02:35:40;10.05;;;9.05;;
12768;SDS011;6448;48.916;8.990;2024-01-15T02:36:41;10.27;;;9.27;;
12768;SDS011;6448;48.916;8.990;2024-01-15T02:37:42;9.95;;;8.95;;
12768;SDS011;6448;48.916;8.990;2024-01-15T02:38:45;9.67;;;8.67;;
12768;SDS011;6448;48.916;8.990;2024-01-15T02:39:45;10.00;;;9.00;;
12768;SDS011;6448;48.916;8.990;2024-01-15T02:40:47;9.60;;;8.68;;
12768;SDS011;6448;48.916;8.990;2024-01-15T02:41:49;9.60;;;8.70;;
12768;SDS011;6448;48.916;8.990;2024-01-15T02:42:51;9.80;;;8.80;;
12768;SDS011;6448;48.916;8.990;2024-01-15T02:43:52;10.13;;;9.10;;
12768;SDS011;6448;48.916;8.990;2024-01-15T02:44:54;9.75;;;8.77;;
12768;SDS011;6448;48.916;8.990;2024-01-15T02:45:54;9.52;;;8.63;;
12768;SDS011;6448;48.916;8.990;2024-01-15T02:46:56;9.30;;;8.30;;
12768;SDS011;6448;48.916;8.990;2024-01-15T02:47:57;9.32;;;8.43;;
12768;SDS011;6448;48.916;8.990;2024-01-15T02:48:57;9.32;;;8.43;;
12768;SDS011;6448;48.916;8.990;2024-01-15T02:49:59;9.20;;;8.30;;
12768;SDS011;6448;48.916;8.990;2024-01-15T02:51:00;9.77;;;8.77;;
12768;SDS011;6448;48.916;8.990;2024-01-15T02:52:02;9.77;;;8.77;;
12768;SDS011;6448;48.916;8.990;2024-01-15T02:53:03;9.60;;;8.60;;
12768;SDS011;6448;48.916;8.990;2024-01-15T02:54:07;10.15;;;9.15;;
12768;SDS011;6448;48.916;8.990;2024-01-15T02:55:08;9.83;;;8.83;;
12768;SDS011;6448;48.916;8.990;2024-01-15T02:56:10;10.35;;;9.27;;
12768;SDS011;6448;48.916;8.990;2024-01-15T02:57:10;9.95;;;8.95;;
12768;SDS011;6448;48.916;8.990;2024-01-15T02:58:12;9.60;;;8.70;;
12768;SDS011;6448;48.916;8.990;2024-01-15T02:59:14;10.27;;;9.27;;
12768;SDS011;6448;48.916;8.990;2024-01-15T03:00:16;10.13;;;9.13;;
12768;SDS011;6448;48.916;8.990;2024-01-15T03:01:18;10.00;;;9.00;;
12768;SDS011;6448;48.916;8.990;2024-01-15T03:02:20;9.70;;;8.80;;
12768;SDS011;6448;48.916;8.990;2024-01-15T03:03:21;10.30;;;9.20;;
12768;SDS011;6448;48.916;8.990;2024-01-15T03:04:22;9.68;;;8.70;;
12768;SDS011;6448;48.916;8.990;2024-01-15T03:05:23;10.02;;;9.02;;
12768;SDS011;6448;48.916;8.990;2024-01-15T03:06:25;9.98;;;8.98;;
12768;SDS011;6448;48.916;8.990;2024-01-15T03:07:26;10.35;;;9.35;;
12768;SDS011;6448;48.916;8.990;2024-01-15T03:08:29;9.88;;;8.93;;
12768;SDS011;6448;48.916;8.990;2024-01-15T03:09:31;10.23;;;9.23;;
12768;SDS011;6448;48.916;8.990;2024-01-15T03:10:33;10.27;;;9.27;;
12768;SDS011;6448;48.916;8.990;2024-01-15T03:11:36;10.18;;;9.18;;
12768;SDS011;6448;48.916;8.990;2024-01-15T03:12:39;9.80;;;8.80;;
12768;SDS011;6448;48.916;8.990;2024-01-15T03:13:39;10.03;;;9.03;;
12768;SDS011;6448;48.916;8.990;2024-01-15T03:14:41;10.30;;;9.30;;
12768;SDS011;6448;48.916;8.990;2024-01-15T03:15:42;10.03;;;9.03;;
12768;SDS011;6448;48.916;8.990;2024-01-15T03:16:44;10.02;;;9.02;;
12768;SDS011;6448;48.916;8.990;2024-01-15T03:17:45;10.43;;;9.32;;
12768;SDS011;6448;48.916;8.990;2024-01-15T03:18:46;10.15;;;9.15;;
12768;SDS011;6448;48.916;8.990;2024-01-15T03:19:47;10.90;;;9.80;;
12768;SDS011;6448;48.916;8.990;2024-01-15T03:20:49;10.45;;;9.43;;
12768;SDS011;6448;48.916;8.990;2024-01-15T03:21:51;10.40;;;9.30;;
12768;SDS011;6448;48.916;8.990;2024-01-15T03:22:52;10.07;;;9.07;;
12768;SDS011;6448;48.916;8.990;2024-01-15T03:23:54;9.45;;;8.55;;
12768;SDS011;6448;48.916;8.990;2024-01-15T03:24:56;9.40;;;8.50;;
12768;SDS011;6448;48.916;8.990;2024-01-15T03:25:56;9.52;;;8.63;;
12768;SDS011;6448;48.916;8.990;2024-01-15T03:26:58;10.18;;;9.15;;
12768;SDS011;6448;48.916;8.990;2024-01-15T03:27:59;8.88;;;7.97;;
12768;SDS011;6448;48.916;8.990;2024-01-15T03:29:00;9.25;;;8.35;;
12768;SDS011;6448;48.916;8.990;2024-01-15T03:30:02;8.88;;;8.07;;
12768;SDS011;6448;48.916;8.990;2024-01-15T03:31:03;9.40;;;8.50;;
12768;SDS011;6448;48.916;8.990;2024-01-15T03:32:04;9.55;;;8.65;;
12768;SDS011;6448;48.916;8.990;2024-01-15T03:33:05;9.88;;;8.88;;
12768;SDS011;6448;48.916;8.990;2024-01-15T03:34:06;9.38;;;8.48;;
12768;SDS011;6448;48.916;8.990;2024-01-15T03:35:08;9.13;;;8.23;;
12768;SDS011;6448;48.916;8.990;2024-01-15T03:36:09;9.48;;;8.57;;
12768;SDS011;6448;48.916;8.990;2024-01-15T03:37:11;9.38;;;8.48;;
12768;SDS011;6448;48.916;8.990;2024-01-15T03:38:12;9.70;;;8.80;;
12768;SDS011;6448;48.916;8.990;2024-01-15T03:39:14;8.48;;;7.68;;
12768;SDS011;6448;48.916;8.990;2024-01-15T03:40:16;8.90;;;8.02;;
12768;SDS011;6448;48.916;8.990;2024-01-15T03:41:18;8.65;;;7.85;;
12768;SDS011;6448;48.916;8.990;2024-01-15T03:42:19;8.27;;;7.47;;
12768;SDS011;6448;48.916;8.990;2024-01-15T03:43:20;7.67;;;6.90;;
12768;SDS011;6448;48.916;8.990;2024-01-15T03:44:21;7.97;;;7.20;;
12768;SDS011;6448;48.916;8.990;2024-01-15T03:45:23;7.77;;;7.07;;
12768;SDS011;6448;48.916;8.990;2024-01-15T03:46:24;7.70;;;7.00;;
12768;SDS011;6448;48.916;8.990;2024-01-15T03:47:26;8.15;;;7.35;;
12768;SDS011;6448;48.916;8.990;2024-01-15T03:48:26;8.23;;;7.43;;
12768;SDS011;6448;48.916;8.990;2024-01-15T03:49:28;7.80;;;7.10;;
12768;SDS011;6448;48.916;8.990;2024-01-15T03:50:29;8.32;;;7.53;;
12768;SDS011;6448;48.916;8.990;2024-01-15T03:51:30;8.20;;;7.40;;
12768;SDS011;6448;48.916;8.990;2024-01-15T03:52:31;7.55;;;6.85;;
12768;SDS011;6448;48.916;8.990;2024-01-15T03:53:32;7.78;;;7.03;;
12768;SDS011;6448;48.916;8.990;2024-01-15T03:54:34;7.80;;;7.10;;
12768;SDS011;6448;48.916;8.990;2024-01-15T03:55:36;7.32;;;6.63;;
12768;SDS011;6448;48.916;8.990;2024-01-15T03:56:37;7.72;;;7.00;;
12768;SDS011;6448;48.916;8.990;2024-01-15T03:57:38;7.70;;;7.00;;
12768;SDS011;6448;48.916;8.990;2024-01-15T03:58:39;7.40;;;6.70;;
12768;SDS011;6448;48.916;8.990;2024-01-15T03:59:40;7.57;;;6.87;;
12768;SDS011;6448;48.916;8.990;2024-01-15T04:00:42;7.35;;;6.65;;
12768;SDS011;6448;48.916;8.990;2024-01-15T04:01:47;7.70;;;7.00;;
12768;SDS011;6448;48.916;8.990;2024-01-15T04:02:50;7.30;;;6.60;;
12768;SDS011;6448;48.916;8.990;2024-01-15T04:03:51;7.00;;;6.30;;
12768;SDS011;6448;48.916;8.990;2024-01-15T04:04:53;7.20;;;6.50;;
12768;SDS011;6448;48.916;8.990;2024-01-15T04:05:54;6.95;;;6.28;;
12768;SDS011;6448;48.916;8.990;2024-01-15T04:06:55;7.35;;;6.65;;
12768;SDS011;6448;48.916;8.990;2024-01-15T04:07:56;6.95;;;6.35;;
12768;SDS011;6448;48.916;8.990;2024-01-15T04:08:58;7.22;;;6.53;;
12768;SDS011;6448;48.916;8.990;2024-01-15T04:09:59;6.97;;;6.30;;
12768;SDS011;6448;48.916;8.990;2024-01-15T04:11:02;7.07;;;6.38;;
12768;SDS011;6448;48.916;8.990;2024-01-15T04:12:04;6.60;;;6.00;;
12768;SDS011;6448;48.916;8.990;2024-01-15T04:13:06;7.00;;;6.30;;
12768;SDS011;6448;48.916;8.990;2024-01-15T04:14:07;6.68;;;6.07;;
12768;SDS011;6448;48.916;8.990;2024-01-15T04:15:08;6.47;;;5.88;;
12768;SDS011;6448;48.916;8.990;2024-01-15T04:16:09;6.97;;;6.30;;
12768;SDS011;6448;48.916;8.990;2024-01-15T04:17:11;6.63;;;6.03;;
12768;SDS011;6448;48.916;8.990;2024-01-15T04:18:12;6.90;;;6.28;;
12768;SDS011;6448;48.916;8.990;2024-01-15T04:19:13;6.57;;;5.97;;
12768;SDS011;6448;48.916;8.990;2024-01-15T04:20:14;6.30;;;5.70;;
12768;SDS011;6448;48.916;8.990;2024-01-15T04:21:16;6.15;;;5.60;;
12768;SDS011;6448;48.916;8.990;2024-01-15T04:22:17;6.90;;;6.20;;
12768;SDS011;6448;48.916;8.990;2024-01-15T04:23:19;6.40;;;5.80;;
12768;SDS011;6448;48.916;8.990;2024-01-15T04:24:20;6.70;;;6.10;;
12768;SDS011;6448;48.916;8.990;2024-01-15T04:25:21;6.30;;;5.70;;
12768;SDS011;6448;48.916;8.990;2024-01-15T04:26:23;6.80;;;6.10;;
12768;SDS011;6448;48.916;8.990;2024-01-15T04:27:25;6.75;;;6.05;;
12768;SDS011;6448;48.916;8.990;2024-01-15T04:28:26;6.50;;;5.90;;
12768;SDS011;6448;48.916;8.990;2024-01-15T04:29:28;7.00;;;6.30;;
12768;SDS011;6448;48.916;8.990;2024-01-15T04:30:28;6.55;;;5.95;;
12768;SDS011;6448;48.916;8.990;2024-01-15T04:31:30;6.43;;;5.82;;
12768;SDS011;6448;48.916;8.990;2024-01-15T04:32:31;6.38;;;5.78;;
12768;SDS011;6448;48.916;8.990;2024-01-15T04:33:33;6.05;;;5.50;;
12768;SDS011;6448;48.916;8.990;2024-01-15T04:34:33;6.43;;;5.82;;
12768;SDS011;6448;48.916;8.990;2024-01-15T04:35:34;6.68;;;6.00;;
12768;SDS011;6448;48.916;8.990;2024-01-15T04:36:38;7.28;;;6.57;;
12768;SDS011;6448;48.916;8.990;2024-01-15T04:37:40;6.60;;;6.00;;
12768;SDS011;6448;48.916;8.990;2024-01-15T04:38:41;6.63;;;6.03;;
12768;SDS011;6448;48.916;8.990;2024-01-15T04:39:43;6.50;;;5.90;;
12768;SDS011;6448;48.916;8.990;2024-01-15T04:40:43;6.70;;;6.00;;
12768;SDS011;6448;48.916;8.990;2024-01-15T04:41:46;6.55;;;5.95;;
12768;SDS011;6448;48.916;8.990;2024-01-15T04:42:47;6.63;;;6.03;;
12768;SDS011;6448;48.916;8.990;2024-01-15T04:43:49;7.05;;;6.40;;
12768;SDS011;6448;48.916;8.990;2024-01-15T04:44:50;6.40;;;5.80;;
12768;SDS011;6448;48.916;8.990;2024-01-15T04:45:52;6.57;;;5.97;;
12768;SDS011;6448;48.916;8.990;2024-01-15T04:46:53;6.53;;;5.93;;
12768;SDS011;6448;48.916;8.990;2024-01-15T04:47:54;6.03;;;5.43;;
12768;SDS011;6448;48.916;8.990;2024-01-15T04:48:56;6.40;;;5.80;;
12768;SDS011;6448;48.916;8.990;2024-01-15T04:49:56;6.10;;;5.50;;
12768;SDS011;6448;48.916;8.990;2024-01-15T04:50:58;5.80;;;5.30;;
12768;SDS011;6448;48.916;8.990;2024-01-15T04:51:59;6.35;;;5.78;;
12768;SDS011;6448;48.916;8.990;2024-01-15T04:53:01;5.90;;;5.40;;
12768;SDS011;6448;48.916;8.990;2024-01-15T04:54:02;5.90;;;5.40;;
12768;SDS011;6448;48.916;8.990;2024-01-15T04:55:04;6.30;;;5.70;;
12768;SDS011;6448;48.916;8.990;2024-01-15T04:56:05;6.07;;;5.50;;
12768;SDS011;6448;48.916;8.990;2024-01-15T04:57:08;6.20;;;5.60;;
12768;SDS011;6448;48.916;8.990;2024-01-15T04:58:09;6.47;;;5.85;;
12768;SDS011;6448;48.916;8.990;2024-01-15T04:59:11;6.82;;;6.15;;
12768;SDS011;6448;48.916;8.990;2024-01-15T05:00:12;6.65;;;6.05;;
12768;SDS011;6448;48.916;8.990;2024-01-15T05:01:15;7.03;;;6.43;;
12768;SDS011;6448;48.916;8.990;2024-01-15T05:02:16;7.13;;;6.47;;
12768;SDS011;6448;48.916;8.990;2024-01-15T05:03:18;7.50;;;6.80;;
12768;SDS011;6448;48.916;8.990;2024-01-15T05:04:19;7.47;;;6.82;;
12768;SDS011;6448;48.916;8.990;2024-01-15T05:05:20;7.60;;;6.90;;
12768;SDS011;6448;48.916;8.990;2024-01-15T05:06:21;8.00;;;7.30;;
12768;SDS011;6448;48.916;8.990;2024-01-15T05:07:22;8.17;;;7.37;;
12768;SDS011;6448;48.916;8.990;2024-01-15T05:08:23;6.72;;;6.10;;
12768;SDS011;6448;48.916;8.990;2024-01-15T05:09:24;6.67;;;6.07;;
12768;SDS011;6448;48.916;8.990;2024-01-15T05:10:26;7.03;;;6.40;;
12768;SDS011;6448;48.916;8.990;2024-01-15T05:11:27;6.50;;;5.90;;
12768;SDS011;6448;48.916;8.990;2024-01-15T05:12:30;5.72;;;5.22;;
12768;SDS011;6448;48.916;8.990;2024-01-15T05:13:30;5.40;;;4.90;;
12768;SDS011;6448;48.916;8.990;2024-01-15T05:14:32;5.30;;;4.80;;
12768;SDS011;6448;48.916;8.990;2024-01-15T05:15:33;5.20;;;4.70;;
12768;SDS011;6448;48.916;8.990;2024-01-15T05:16:35;5.13;;;4.63;;
12768;SDS011;6448;48.916;8.990;2024-01-15T05:17:38;5.20;;;4.70;;
12768;SDS011;6448;48.916;8.990;2024-01-15T05:18:39;5.68;;;5.07;;
12768;SDS011;6448;48.916;8.990;2024-01-15T05:19:40;5.65;;;5.15;;
12768;SDS011;6448;48.916;8.990;2024-01-15T05:20:42;5.32;;;4.88;;
12768;SDS011;6448;48.916;8.990;2024-01-15T05:21:42;5.28;;;4.78;;
12768;SDS011;6448;48.916;8.990;2024-01-15T05:22:44;4.90;;;4.50;;
12768;SDS011;6448;48.916;8.990;2024-01-15T05:23:45;5.10;;;4.70;;
12768;SDS011;6448;48.916;8.990;2024-01-15T05:24:47;4.90;;;4.50;;
12768;SDS011;6448;48.916;8.990;2024-01-15T05:25:48;4.88;;;4.35;;
12768;SDS011;6448;48.916;8.990;2024-01-15T05:26:49;5.05;;;4.65;;
12768;SDS011;6448;48.916;8.990;2024-01-15T05:27:51;4.70;;;4.30;;
12768;SDS011;6448;48.916;8.990;2024-01-15T05:28:53;4.90;;;4.50;;
12768;SDS011;6448;48.916;8.990;2024-01-15T05:29:54;5.03;;;4.53;;
12768;SDS011;6448;48.916;8.990;2024-01-15T05:30:56;4.80;;;4.40;;
12768;SDS011;6448;48.916;8.990;2024-01-15T05:31:56;5.10;;;4.60;;
12768;SDS011;6448;48.916;8.990;2024-01-15T05:32:58;5.32;;;4.82;;
12768;SDS011;6448;48.916;8.990;2024-01-15T05:34:00;5.47;;;4.97;;
12768;SDS011;6448;48.916;8.990;2024-01-15T05:35:02;5.30;;;4.80;;
12768;SDS011;6448;48.916;8.990;2024-01-15T05:36:03;5.35;;;4.90;;
12768;SDS011;6448;48.916;8.990;2024-01-15T05:37:06;5.60;;;5.10;;
12768;SDS011;6448;48.916;8.990;2024-01-15T05:38:06;5.50;;;5.00;;
12768;SDS011;6448;48.916;8.990;2024-01-15T05:39:08;4.80;;;4.40;;
12768;SDS011;6448;48.916;8.990;2024-01-15T05:40:09;5.15;;;4.65;;
12768;SDS011;6448;48.916;8.990;2024-01-15T05:41:11;4.50;;;4.10;;
12768;SDS011;6448;48.916;8.990;2024-01-15T05:42:13;4.97;;;4.53;;
12768;SDS011;6448;48.916;8.990;2024-01-15T05:43:15;5.25;;;4.75;;
12768;SDS011;6448;48.916;8.990;2024-01-15T05:44:17;5.10;;;4.70;;
12768;SDS011;6448;48.916;8.990;2024-01-15T05:45:17;4.93;;;4.53;;
12768;SDS011;6448;48.916;8.990;2024-01-15T05:46:19;4.95;;;4.45;;
12768;SDS011;6448;48.916;8.990;2024-01-15T05:47:20;5.40;;;4.90;;
12768;SDS011;6448;48.916;8.990;2024-01-15T05:48:22;4.70;;;4.30;;
12768;SDS011;6448;48.916;8.990;2024-01-15T05:49:23;4.80;;;4.38;;
12768;SDS011;6448;48.916;8.990;2024-01-15T05:50:24;4.63;;;4.22;;
12768;SDS011;6448;48.916;8.990;2024-01-15T05:51:25;4.90;;;4.50;;
12768;SDS011;6448;48.916;8.990;2024-01-15T05:52:26;4.55;;;4.15;;
12768;SDS011;6448;48.916;8.990;2024-01-15T05:53:27;4.30;;;3.90;;
12768;SDS011;6448;48.916;8.990;2024-01-15T05:54:29;4.38;;;3.97;;
12768;SDS011;6448;48.916;8.990;2024-01-15T05:55:31;4.40;;;4.00;;
12768;SDS011;6448;48.916;8.990;2024-01-15T05:56:32;4.80;;;4.30;;
12768;SDS011;6448;48.916;8.990;2024-01-15T05:57:34;4.38;;;3.97;;
12768;SDS011;6448;48.916;8.990;2024-01-15T05:58:36;4.47;;;4.07;;
12768;SDS011;6448;48.916;8.990;2024-01-15T05:59:36;4.13;;;3.75;;
12768;SDS011;6448;48.916;8.990;2024-01-15T06:00:38;4.35;;;3.95;;
12768;SDS011;6448;48.916;8.990;2024-01-15T06:01:39;3.83;;;3.42;;
12768;SDS011;6448;48.916;8.990;2024-01-15T06:02:40;4.00;;;3.60;;
12768;SDS011;6448;48.916;8.990;2024-01-15T06:03:41;3.65;;;3.35;;
12768;SDS011;6448;48.916;8.990;2024-01-15T06:04:42;3.80;;;3.50;;
12768;SDS011;6448;48.916;8.990;2024-01-15T06:05:43;3.80;;;3.40;;
12768;SDS011;6448;48.916;8.990;2024-01-15T06:06:45;4.00;;;3.60;;
12768;SDS011;6448;48.916;8.990;2024-01-15T06:07:45;3.70;;;3.40;;
12768;SDS011;6448;48.916;8.990;2024-01-15T06:08:47;3.90;;;3.60;;
12768;SDS011;6448;48.916;8.990;2024-01-15T06:09:48;3.72;;;3.42;;
12768;SDS011;6448;48.916;8.990;2024-01-15T06:10:50;7.47;;;6.88;;
12768;SDS011;6448;48.916;8.990;2024-01-15T06:11:51;6.10;;;5.60;;